Time;durP1;ratioP1;P1;durP2;ratioP2;P2;SDS_P1;SDS_P2;PMS_P1;PMS_P2;Temp;Humidity;BMP_temperature;BMP_pressure;BME280_temperature;BME280_humidity;BME280_pressure;Samples;Min_cycle;Max_cycle;Signal;HPM_P1;HPM_P2
2024/03/10 00:00:43;;;;;;;;;;;;;;;;;;2194087;67;1136;-20
2024/03/10 00:03:13;;;;;;;;;;;;;;;;;;2194274;59;1428;-20
2024/03/10 00:05:43;;;;;;;;;;;;;;;;;;2195091;59;2223;-20
2024/03/10 00:08:14;;;;;;;;;;;;;;;;;;2194040;67;1928;-20
2024/03/10 00:10:44;;;;;;;;;;;;;;;;;;2194533;67;1592;-21
2024/03/10 00:13:14;;;;;;;;;;;;;;;;;;2188338;59;1639;-20
2024/03/10 00:15:45;;;;;;;;;;;;;;;;;;2196691;67;1278;-20
2024/03/10 00:18:16;;;;;;;;;;;;;;;;;;2191171;67;1623;-20
2024/03/10 00:20:46;;;;;;;;;;;;;;;;;;2195289;59;2249;-20
2024/03/10 00:23:17;;;;;;;;;;;;;;;;;;2195051;59;1660;-20
2024/03/10 00:25:48;;;;;;;;;;;;;;;;;;2194789;59;2097;-20
2024/03/10 00:28:19;;;;;;;;;;;;;;;;;;2194643;59;1930;-20
2024/03/10 00:30:50;;;;;;;;;;;;;;;;;;2195804;67;1609;-20
2024/03/10 00:33:20;;;;;;;;;;;;;;;;;;2194361;59;1489;-20
2024/03/10 00:35:51;;;;;;;;;;;;;;;;;;2192544;59;1668;-20
2024/03/10 00:38:22;;;;;;;;;;;;;;;;;;2191388;59;1821;-20
2024/03/10 00:40:52;;;;;;;;;;;;;;;;;;2194865;59;1866;-20
2024/03/10 00:43:22;;;;;;;;;;;;;;;;;;2194598;67;1256;-20
2024/03/10 00:45:53;;;;;;;;;;;;;;;;;;2193906;59;1557;-20
2024/03/10 00:48:23;;;;;;;;;;;;;;;;;;2193849;59;1995;-20
2024/03/10 00:50:54;;;;;;;;;;;;;;;;;;2194960;67;1638;-20
2024/03/10 00:53:24;;;;;;;;;;;;;;;;;;2194251;59;1631;-20
2024/03/10 00:55:55;;;;;;;;;;;;;;;;;;2193432;59;1263;-20
2024/03/10 00:58:25;;;;;;;;;;;;;;;;;;2192925;67;2155;-20
2024/03/10 01:00:55;;;;;;;;;;;;;;;;;;2194212;67;1513;-20
2024/03/10 01:03:26;;;;;;;;;;;;;;;;;;2193369;59;1521;-20
2024/03/10 01:05:56;;;;;;;;;;;;;;;;;;2192215;67;1466;-20
2024/03/10 01:08:26;;;;;;;;;;;;;;;;;;2192642;67;1934;-21
2024/03/10 01:10:57;;;;;;;;;;;;;;;;;;2196142;67;1298;-20
2024/03/10 01:13:27;;;;;;;;;;;;;;;;;;2193987;59;1483;-20
2024/03/10 01:15:58;;;;;;;;;;;;;;;;;;2195143;67;1229;-20
2024/03/10 01:18:28;;;;;;;;;;;;;;;;;;2194140;59;2118;-21
2024/03/10 01:20:58;;;;;;;;;;;;;;;;;;2195026;59;1493;-20
2024/03/10 01:23:29;;;;;;;;;;;;;;;;;;2188337;67;1565;-20
2024/03/10 01:26:00;;;;;;;;;;;;;;;;;;2194536;59;1184;-20
2024/03/10 01:28:30;;;;;;;;;;;;;;;;;;2194428;67;1925;-20
2024/03/10 01:31:01;;;;;;;;;;;;;;;;;;2191473;67;1298;-20
2024/03/10 01:33:33;;;;;;;;;;;;;;;;;;2189071;59;1835;-20
2024/03/10 01:36:06;;;;;;;;;;;;;;;;;;2195000;67;2069;-20
2024/03/10 01:38:39;;;;;;;;;;;;;;;;;;2194714;59;1354;-20
2024/03/10 01:41:11;;;;;;;;;;;;;;;;;;2194142;59;1930;-20
2024/03/10 01:43:49;;;;;;;;;;;;;;;;;;2195294;67;1239;-20
2024/03/10 01:46:21;;;;;;;;;;;;;;;;;;2193978;59;1373;-20
2024/03/10 01:48:53;;;;;;;;;;;;;;;;;;2195055;67;1991;-20
2024/03/10 01:51:26;;;;;;;;;;;;;;;;;;2194133;59;2059;-20
2024/03/10 01:53:57;;;;;;;;;;;;;;;;;;2194982;67;1218;-20
2024/03/10 01:56:28;;;;;;;;;;;;;;;;;;2193545;59;1463;-20
2024/03/10 01:59:01;;;;;;;;;;;;;;;;;;2194231;67;1255;-20
2024/03/10 02:01:32;;;;;;;;;;;;;;;;;;2190953;67;1163;-20
2024/03/10 02:04:03;;;;;;;;;;;;;;;;;;2191995;67;1751;-20
2024/03/10 02:06:34;;;;;;;;;;;;;;;;;;2190983;67;1442;-20
2024/03/10 02:09:05;;;;;;;;;;;;;;;;;;2191763;67;1932;-20
2024/03/10 02:11:35;;;;;;;;;;;;;;;;;;2194160;67;1253;-20
2024/03/10 02:14:08;;;;;;;;;;;;;;;;;;2192826;59;1230;-20
2024/03/10 02:16:38;;;;;;;;;;;;;;;;;;2194085;67;1597;-20
2024/03/10 02:19:08;;;;;;;;;;;;;;;;;;2195475;67;1351;-20
2024/03/10 02:21:39;;;;;;;;;;;;;;;;;;2191273;67;1654;-20
2024/03/10 02:24:16;;;;;;;;;;;;;;;;;;2195975;67;1282;-20
2024/03/10 02:26:47;;;;;;;;;;;;;;;;;;2194141;67;1305;-20
2024/03/10 02:29:23;;;;;;;;;;;;;;;;;;2188694;67;1928;-20
2024/03/10 02:48:49;;;;;;;;;;;;;;;;;;2194474;67;1932;-20
2024/03/10 02:51:21;;;;;;;;;;;;;;;;;;2190433;67;1745;-21
2024/03/10 02:53:54;;;;;;;;;;;;;;;;;;2192982;67;1374;-20
2024/03/10 02:56:25;;;;;;;;;;;;;;;;;;2193989;59;2091;-20
2024/03/10 02:58:55;;;;;;;;;;;;;;;;;;2192563;67;1404;-20
2024/03/10 03:01:25;;;;;;;;;;;;;;;;;;2188602;67;1311;-20
2024/03/10 03:03:56;;;;;;;;;;;;;;;;;;2191527;59;1507;-20
2024/03/10 03:06:27;;;;;;;;;;;;;;;;;;2188930;67;1444;-20
2024/03/10 03:08:57;;;;;;;;;;;;;;;;;;2191386;67;1980;-20
2024/03/10 03:11:28;;;;;;;;;;;;;;;;;;2189080;59;1481;-20
2024/03/10 03:14:00;;;;;;;;;;;;;;;;;;2194551;59;2084;-20
2024/03/10 03:16:32;;;;;;;;;;;;;;;;;;2191086;67;1623;-20
2024/03/10 03:19:03;;;;;;;;;;;;;;;;;;2196183;59;2175;-20
2024/03/10 03:21:33;;;;;;;;;;;;;;;;;;2193296;59;1187;-20
2024/03/10 03:24:07;;;;;;;;;;;;;;;;;;2194336;59;1478;-20
2024/03/10 03:26:38;;;;;;;;;;;;;;;;;;2193129;59;1312;-20
2024/03/10 03:29:15;;;;;;;;;;;;;;;;;;2194950;67;1944;-20
2024/03/10 03:31:46;;;;;;;;;;;;;;;;;;2194971;67;1327;-20
2024/03/10 03:34:17;;;;;;;;;;;;;;;;;;2194176;67;1812;-20
2024/03/10 03:36:47;;;;;;;;;;;;;;;;;;2192086;59;1708;-20
2024/03/10 03:39:19;;;;;;;;;;;;;;;;;;2193841;59;2142;-20
2024/03/10 03:41:50;;;;;;;;;;;;;;;;;;2191830;67;1262;-21
2024/03/10 03:44:20;;;;;;;;;;;;;;;;;;2193627;67;1454;-20
2024/03/10 03:46:50;;;;;;;;;;;;;;;;;;2194488;59;1671;-20
2024/03/10 03:49:21;;;;;;;;;;;;;;;;;;2194195;67;1601;-20
2024/03/10 03:51:51;;;;;;;;;;;;;;;;;;2194856;67;1280;-20
2024/03/10 03:54:21;;;;;;;;;;;;;;;;;;2194489;59;1713;-20
2024/03/10 03:56:52;;;;;;;;;;;;;;;;;;2194621;67;1751;-20
2024/03/10 03:59:22;;;;;;;;;;;;;;;;;;2193792;67;1479;-20
2024/03/10 04:01:52;;;;;;;;;;;;;;;;;;2191007;67;1331;-21
2024/03/10 04:04:23;;;;;;;;;;;;;;;;;;2189681;59;2247;-20
2024/03/10 04:06:53;;;;;;;;;;;;;;;;;;2191641;67;1973;-20
2024/03/10 04:09:24;;;;;;;;;;;;;;;;;;2194541;67;1685;-21
2024/03/10 04:11:54;;;;;;;;;;;;;;;;;;2195766;67;1386;-20
2024/03/10 04:14:26;;;;;;;;;;;;;;;;;;2191823;59;1518;-20
2024/03/10 04:16:56;;;;;;;;;;;;;;;;;;2194426;67;1246;-20
2024/03/10 04:19:27;;;;;;;;;;;;;;;;;;2190854;67;1611;-20
2024/03/10 04:21:57;;;;;;;;;;;;;;;;;;2194817;67;1401;-20
2024/03/10 04:24:28;;;;;;;;;;;;;;;;;;2194625;67;1592;-20
2024/03/10 04:26:58;;;;;;;;;;;;;;;;;;2192998;67;1933;-20
2024/03/10 04:29:28;;;;;;;;;;;;;;;;;;2189206;67;1403;-20
2024/03/10 04:31:59;;;;;;;;;;;;;;;;;;2195122;67;1488;-20
2024/03/10 04:34:30;;;;;;;;;;;;;;;;;;2193808;67;1711;-20
2024/03/10 04:37:00;;;;;;;;;;;;;;;;;;2196365;59;2194;-17
2024/03/10 04:39:31;;;;;;;;;;;;;;;;;;2194425;59;1684;-18
2024/03/10 04:42:01;;;;;;;;;;;;;;;;;;2195543;59;1448;-18
2024/03/10 04:44:32;;;;;;;;;;;;;;;;;;2195211;59;1519;-18
2024/03/10 04:47:03;;;;;;;;;;;;;;;;;;2191696;59;1981;-18
2024/03/10 04:49:33;;;;;;;;;;;;;;;;;;2194813;67;1346;-18
2024/03/10 04:52:03;;;;;;;;;;;;;;;;;;2194682;60;1618;-18
2024/03/10 04:54:34;;;;;;;;;;;;;;;;;;2194213;59;1833;-18
2024/03/10 04:57:05;;;;;;;;;;;;;;;;;;2195301;67;1783;-18
2024/03/10 04:59:35;;;;;;;;;;;;;;;;;;2194085;67;1960;-18
2024/03/10 05:02:05;;;;;;;;;;;;;;;;;;2191262;67;1290;-18
2024/03/10 05:04:36;;;;;;;;;;;;;;;;;;2194619;59;1511;-18
2024/03/10 05:07:06;;;;;;;;;;;;;;;;;;2194628;60;2003;-18
2024/03/10 05:09:36;;;;;;;;;;;;;;;;;;2192173;67;1370;-18
2024/03/10 05:12:08;;;;;;;;;;;;;;;;;;2192057;59;1704;-18
2024/03/10 05:14:39;;;;;;;;;;;;;;;;;;2195254;59;1549;-17
2024/03/10 05:17:11;;;;;;;;;;;;;;;;;;2195697;67;1447;-18
2024/03/10 05:19:42;;;;;;;;;;;;;;;;;;2190809;67;1496;-17
2024/03/10 05:22:13;;;;;;;;;;;;;;;;;;2195132;67;1232;-17
2024/03/10 05:24:43;;;;;;;;;;;;;;;;;;2190765;67;1510;-18
2024/03/10 05:27:16;;;;;;;;;;;;;;;;;;2194711;67;1996;-18
2024/03/10 05:29:46;;;;;;;;;;;;;;;;;;2189966;59;1858;-17
2024/03/10 05:32:17;;;;;;;;;;;;;;;;;;2191041;67;1310;-17
2024/03/10 05:34:47;;;;;;;;;;;;;;;;;;2191116;60;1726;-18
2024/03/10 05:37:17;;;;;;;;;;;;;;;;;;2191935;67;1459;-18
2024/03/10 05:39:48;;;;;;;;;;;;;;;;;;2191591;59;1792;-18
2024/03/10 05:42:18;;;;;;;;;;;;;;;;;;2193378;67;1231;-17
2024/03/10 05:44:48;;;;;;;;;;;;;;;;;;2190802;59;1447;-17
2024/03/10 05:47:18;;;;;;;;;;;;;;;;;;2189021;59;1940;-17
2024/03/10 05:49:49;;;;;;;;;;;;;;;;;;2195129;67;1724;-17
2024/03/10 05:52:19;;;;;;;;;;;;;;;;;;2195838;67;1512;-17
2024/03/10 05:54:50;;;;;;;;;;;;;;;;;;2194431;59;1581;-18
2024/03/10 05:57:20;;;;;;;;;;;;;;;;;;2195862;67;1346;-18
2024/03/10 05:59:50;;;;;;;;;;;;;;;;;;2194449;67;1453;-17
2024/03/10 06:02:21;;;;;;;;;;;;;;;;;;2194696;67;1398;-18
2024/03/10 06:04:51;;;;;;;;;;;;;;;;;;2191809;59;1927;-18
2024/03/10 06:07:22;;;;;;;;;;;;;;;;;;2194954;67;2007;-17
2024/03/10 06:09:52;;;;;;;;;;;;;;;;;;2193623;67;1546;-18
2024/03/10 06:12:22;;;;;;;;;;;;;;;;;;2195056;59;1218;-18
2024/03/10 06:14:53;;;;;;;;;;;;;;;;;;2191791;59;1672;-18
2024/03/10 06:17:30;;;;;;;;;;;;;;;;;;2194941;67;1293;-18
2024/03/10 06:25:38;;;;;;;;;;;;;;;;;;2192540;67;1367;-18
2024/03/10 06:28:09;;;;;;;;;;;;;;;;;;2196251;67;1932;-17
2024/03/10 06:30:40;;;;;;;;;;;;;;;;;;2194371;67;1577;-17
2024/03/10 06:33:11;;;;;;;;;;;;;;;;;;2191970;59;1689;-17
2024/03/10 06:35:41;;;;;;;;;;;;;;;;;;2193655;67;1512;-17
2024/03/10 06:38:12;;;;;;;;;;;;;;;;;;2195293;59;1416;-17
2024/03/10 06:40:42;;;;;;;;;;;;;;;;;;2191846;59;1856;-17
2024/03/10 06:43:14;;;;;;;;;;;;;;;;;;2194103;59;2181;-18
2024/03/10 06:45:44;;;;;;;;;;;;;;;;;;2190885;59;1545;-17
2024/03/10 06:48:15;;;;;;;;;;;;;;;;;;2195060;59;1934;-18
2024/03/10 06:50:45;;;;;;;;;;;;;;;;;;2193105;59;1186;-18
2024/03/10 06:53:16;;;;;;;;;;;;;;;;;;2195006;67;1969;-18
2024/03/10 06:55:46;;;;;;;;;;;;;;;;;;2190988;59;1641;-18
2024/03/10 06:58:17;;;;;;;;;;;;;;;;;;2194847;59;1310;-18
2024/03/10 07:00:47;;;;;;;;;;;;;;;;;;2191097;67;1405;-18
2024/03/10 07:03:18;;;;;;;;;;;;;;;;;;2196131;59;1383;-18
2024/03/10 07:05:48;;;;;;;;;;;;;;;;;;2193586;59;2096;-18
2024/03/10 07:08:18;;;;;;;;;;;;;;;;;;2195611;59;1981;-18
2024/03/10 07:10:49;;;;;;;;;;;;;;;;;;2193574;59;1398;-18
2024/03/10 07:13:19;;;;;;;;;;;;;;;;;;2194794;59;1540;-18
2024/03/10 07:15:49;;;;;;;;;;;;;;;;;;2191675;59;1754;-18
2024/03/10 07:18:20;;;;;;;;;;;;;;;;;;2195209;67;1636;-18
2024/03/10 07:20:50;;;;;;;;;;;;;;;;;;2193774;67;1665;-18
2024/03/10 07:23:21;;;;;;;;;;;;;;;;;;2195377;67;1458;-18
2024/03/10 07:25:52;;;;;;;;;;;;;;;;;;2193689;67;1846;-20
2024/03/10 07:28:22;;;;;;;;;;;;;;;;;;2191357;67;1934;-20
2024/03/10 07:30:54;;;;;;;;;;;;;;;;;;2191040;67;1428;-20
2024/03/10 07:33:24;;;;;;;;;;;;;;;;;;2195863;59;1681;-20
2024/03/10 07:35:55;;;;;;;;;;;;;;;;;;2194090;67;1581;-20
2024/03/10 07:38:27;;;;;;;;;;;;;;;;;;2195121;59;1554;-20
2024/03/10 07:40:57;;;;;;;;;;;;;;;;;;2194549;59;2848;-21
2024/03/10 07:43:28;;;;;;;;;;;;;;;;;;2194876;67;1328;-20
2024/03/10 07:45:58;;;;;;;;;;;;;;;;;;2194111;59;2101;-20
2024/03/10 07:48:30;;;;;;;;;;;;;;;;;;2191826;59;1968;-20
2024/03/10 07:51:01;;;;;;;;;;;;;;;;;;2189273;67;1840;-20
2024/03/10 07:53:31;;;;;;;;;;;;;;;;;;2194594;67;1911;-20
2024/03/10 07:56:02;;;;;;;;;;;;;;;;;;2196211;63;1283;-20
2024/03/10 07:58:32;;;;;;;;;;;;;;;;;;2193845;67;1454;-20
2024/03/10 08:01:03;;;;;;;;;;;;;;;;;;2191182;67;1803;-20
2024/03/10 08:03:34;;;;;;;;;;;;;;;;;;2194821;67;1257;-20
2024/03/10 08:06:07;;;;;;;;;;;;;;;;;;2192105;67;1596;-20
2024/03/10 08:08:37;;;;;;;;;;;;;;;;;;2193487;67;1991;-20
2024/03/10 08:11:07;;;;;;;;;;;;;;;;;;2194712;67;1493;-20
2024/03/10 08:13:40;;;;;;;;;;;;;;;;;;2194071;59;1686;-20
2024/03/10 08:16:10;;;;;;;;;;;;;;;;;;2192349;59;1329;-20
2024/03/10 08:18:41;;;;;;;;;;;;;;;;;;2193998;67;1664;-21
2024/03/10 08:21:11;;;;;;;;;;;;;;;;;;2192076;67;1741;-20
2024/03/10 08:23:41;;;;;;;;;;;;;;;;;;2192581;67;1705;-20
2024/03/10 08:26:12;;;;;;;;;;;;;;;;;;2191368;67;1687;-20
2024/03/10 08:28:43;;;;;;;;;;;;;;;;;;2193568;59;1904;-20
2024/03/10 08:31:13;;;;;;;;;;;;;;;;;;2195137;67;1421;-20
2024/03/10 08:33:43;;;;;;;;;;;;;;;;;;2193169;59;1565;-20
2024/03/10 08:36:14;;;;;;;;;;;;;;;;;;2195337;67;1513;-20
2024/03/10 08:38:44;;;;;;;;;;;;;;;;;;2191496;59;1872;-20
2024/03/10 08:41:14;;;;;;;;;;;;;;;;;;2195755;59;2417;-20
2024/03/10 08:43:45;;;;;;;;;;;;;;;;;;2190986;67;1916;-21
2024/03/10 08:46:15;;;;;;;;;;;;;;;;;;2195454;59;1884;-20
2024/03/10 08:48:45;;;;;;;;;;;;;;;;;;2188408;59;2682;-20
2024/03/10 08:51:17;;;;;;;;;;;;;;;;;;2194664;67;2676;-20
2024/03/10 08:53:47;;;;;;;;;;;;;;;;;;2191650;59;2232;-20
2024/03/10 08:56:17;;;;;;;;;;;;;;;;;;2195773;59;2422;-20
2024/03/10 08:58:48;;;;;;;;;;;;;;;;;;2193409;67;1447;-20
2024/03/10 09:01:20;;;;;;;;;;;;;;;;;;2194628;67;1460;-20
2024/03/10 09:03:53;;;;;;;;;;;;;;;;;;2191034;59;1724;-20
2024/03/10 09:06:26;;;;;;;;;;;;;;;;;;2191665;67;1857;-20
2024/03/10 09:08:57;;;;;;;;;;;;;;;;;;2190537;67;1964;-20
2024/03/10 09:11:28;;;;;;;;;;;;;;;;;;2194779;59;2228;-20
2024/03/10 09:14:00;;;;;;;;;;;;;;;;;;2186746;59;2184;-20
2024/03/10 09:16:30;;;;;;;;;;;;;;;;;;2194564;59;2218;-20
2024/03/10 09:19:00;;;;;;;;;;;;;;;;;;2192254;59;2345;-20
2024/03/10 09:21:33;;;;;;;;;;;;;;;;;;2193556;59;2503;-20
2024/03/10 09:24:03;;;;;;;;;;;;;;;;;;2192781;59;2379;-20
2024/03/10 09:26:35;;;;;;;;;;;;;;;;;;2193794;59;2497;-20
2024/03/10 09:29:06;;;;;;;;;;;;;;;;;;2192607;59;2749;-20
2024/03/10 09:31:39;;;;;;;;;;;;;;;;;;2193394;59;2288;-20
2024/03/10 09:34:11;;;;;;;;;;;;;;;;;;2193323;59;2174;-20
2024/03/10 09:36:42;;;;;;;;;;;;;;;;;;2193308;59;2194;-20
2024/03/10 09:39:12;;;;;;;;;;;;;;;;;;2192645;59;3236;-20
2024/03/10 09:41:43;;;;;;;;;;;;;;;;;;2191231;67;1516;-20
2024/03/10 09:44:18;;;;;;;;;;;;;;;;;;2195044;67;1582;-20
2024/03/10 09:46:51;;;;;;;;;;;;;;;;;;2194966;59;2038;-20
2024/03/10 09:49:22;;;;;;;;;;;;;;;;;;2192254;67;1942;-20
2024/03/10 09:51:53;;;;;;;;;;;;;;;;;;2193553;67;2478;-20
2024/03/10 09:54:23;;;;;;;;;;;;;;;;;;2195200;59;2587;-21
2024/03/10 09:56:54;;;;;;;;;;;;;;;;;;2194054;59;2409;-20
2024/03/10 09:59:35;;;;;;;;;;;;;;;;;;2195803;67;1622;-20
2024/03/10 10:02:08;;;;;;;;;;;;;;;;;;2191149;67;1585;-20
2024/03/10 10:04:46;;;;;;;;;;;;;;;;;;2194779;59;1505;-21
2024/03/10 10:07:17;;;;;;;;;;;;;;;;;;2194663;67;1940;-20
2024/03/10 10:09:58;;;;;;;;;;;;;;;;;;2190569;59;2577;-20
2024/03/10 10:12:28;;;;;;;;;;;;;;;;;;2193146;59;2455;-20
2024/03/10 10:14:58;;;;;;;;;;;;;;;;;;2192338;59;2495;-21
2024/03/10 10:17:32;;;;;;;;;;;;;;;;;;2193270;59;2208;-20
2024/03/10 10:20:07;;;;;;;;;;;;;;;;;;2192008;59;2248;-20
2024/03/10 10:22:38;;;;;;;;;;;;;;;;;;2192207;59;2355;-20
2024/03/10 10:25:12;;;;;;;;;;;;;;;;;;2190356;59;2152;-20
2024/03/10 10:27:46;;;;;;;;;;;;;;;;;;2191949;59;2123;-21
2024/03/10 10:30:17;;;;;;;;;;;;;;;;;;2190922;67;1401;-20
2024/03/10 10:33:04;;;;;;;;;;;;;;;;;;2192330;67;1754;-20
2024/03/10 10:35:38;;;;;;;;;;;;;;;;;;2194044;59;1932;-20
2024/03/10 10:38:12;;;;;;;;;;;;;;;;;;2192449;59;1623;-20
2024/03/10 10:40:51;;;;;;;;;;;;;;;;;;2193657;59;3137;-21
2024/03/10 10:43:21;;;;;;;;;;;;;;;;;;2186722;59;2728;-20
2024/03/10 10:45:51;;;;;;;;;;;;;;;;;;2187187;59;1909;-20
2024/03/10 10:48:23;;;;;;;;;;;;;;;;;;2193855;59;2440;-20
2024/03/10 10:50:53;;;;;;;;;;;;;;;;;;2193346;67;1883;-21
2024/03/10 10:53:24;;;;;;;;;;;;;;;;;;2193708;59;2172;-20
2024/03/10 10:55:54;;;;;;;;;;;;;;;;;;2188028;67;1730;-20
2024/03/10 10:58:31;;;;;;;;;;;;;;;;;;2193085;67;1594;-20
2024/03/10 11:01:05;;;;;;;;;;;;;;;;;;2192089;67;1771;-20
2024/03/10 11:03:36;;;;;;;;;;;;;;;;;;2194113;59;1577;-20
2024/03/10 11:06:08;;;;;;;;;;;;;;;;;;2192895;59;2928;-20
2024/03/10 11:08:41;;;;;;;;;;;;;;;;;;2190928;67;1989;-20
2024/03/10 11:11:14;;;;;;;;;;;;;;;;;;2193098;59;2139;-20
2024/03/10 11:13:45;;;;;;;;;;;;;;;;;;2193245;59;2681;-21
2024/03/10 11:16:23;;;;;;;;;;;;;;;;;;2193290;67;2594;-20
2024/03/10 11:19:10;;;;;;;;;;;;;;;;;;2191951;59;2137;-20
2024/03/10 11:21:41;;;;;;;;;;;;;;;;;;2192520;59;2396;-20
2024/03/10 11:24:15;;;;;;;;;;;;;;;;;;2193703;67;1742;-21
2024/03/10 11:26:46;;;;;;;;;;;;;;;;;;2192865;67;2024;-21
2024/03/10 11:29:25;;;;;;;;;;;;;;;;;;2191871;67;1972;-20
2024/03/10 11:31:56;;;;;;;;;;;;;;;;;;2189713;67;1623;-21
2024/03/10 11:34:27;;;;;;;;;;;;;;;;;;2192158;59;2547;-21
2024/03/10 11:36:58;;;;;;;;;;;;;;;;;;2191957;59;2171;-20
2024/03/10 11:39:30;;;;;;;;;;;;;;;;;;2191023;59;1890;-20
2024/03/10 11:42:02;;;;;;;;;;;;;;;;;;2189788;67;1467;-20
2024/03/10 11:44:35;;;;;;;;;;;;;;;;;;2194150;59;1723;-21
2024/03/10 11:47:10;;;;;;;;;;;;;;;;;;2192886;59;2149;-21
2024/03/10 11:49:42;;;;;;;;;;;;;;;;;;2194841;59;1910;-21
2024/03/10 11:52:15;;;;;;;;;;;;;;;;;;2191935;59;2100;-20
2024/03/10 11:54:58;;;;;;;;;;;;;;;;;;2194359;67;1482;-20
2024/03/10 11:57:28;;;;;;;;;;;;;;;;;;2195012;67;2203;-20
2024/03/10 11:59:59;;;;;;;;;;;;;;;;;;2194509;67;1743;-20
2024/03/10 12:02:29;;;;;;;;;;;;;;;;;;2195166;59;2298;-20
2024/03/10 12:05:00;;;;;;;;;;;;;;;;;;2190286;59;2285;-20
2024/03/10 12:07:31;;;;;;;;;;;;;;;;;;2191262;67;1993;-20
2024/03/10 12:10:08;;;;;;;;;;;;;;;;;;2192220;59;3122;-20
2024/03/10 12:12:39;;;;;;;;;;;;;;;;;;2194650;59;2201;-20
2024/03/10 12:15:21;;;;;;;;;;;;;;;;;;2192875;59;2350;-20
2024/03/10 12:17:52;;;;;;;;;;;;;;;;;;2192786;59;1458;-20
2024/03/10 12:20:23;;;;;;;;;;;;;;;;;;2194107;59;2413;-20
2024/03/10 12:22:55;;;;;;;;;;;;;;;;;;2192903;67;1796;-21
2024/03/10 12:25:27;;;;;;;;;;;;;;;;;;2194338;59;1989;-20
2024/03/10 12:27:57;;;;;;;;;;;;;;;;;;2189628;59;1937;-21
2024/03/10 12:30:28;;;;;;;;;;;;;;;;;;2194169;67;2369;-20
2024/03/10 12:33:04;;;;;;;;;;;;;;;;;;2192192;59;1610;-20
2024/03/10 12:35:34;;;;;;;;;;;;;;;;;;2195375;59;2303;-20
2024/03/10 12:38:07;;;;;;;;;;;;;;;;;;2192285;67;2067;-20
2024/03/10 12:40:39;;;;;;;;;;;;;;;;;;2194621;59;2078;-20
2024/03/10 12:43:10;;;;;;;;;;;;;;;;;;2192425;59;1573;-20
2024/03/10 12:45:41;;;;;;;;;;;;;;;;;;2193985;59;2297;-20
2024/03/10 12:48:11;;;;;;;;;;;;;;;;;;2192158;59;2754;-20
2024/03/10 12:50:42;;;;;;;;;;;;;;;;;;2192892;60;2131;-20
2024/03/10 12:53:12;;;;;;;;;;;;;;;;;;2189238;59;2753;-20
2024/03/10 12:55:42;;;;;;;;;;;;;;;;;;2194521;59;2188;-20
2024/03/10 12:58:14;;;;;;;;;;;;;;;;;;2193184;67;1873;-20
2024/03/10 13:00:44;;;;;;;;;;;;;;;;;;2192116;59;1991;-20
2024/03/10 13:03:14;;;;;;;;;;;;;;;;;;2192567;59;1745;-20
2024/03/10 13:05:45;;;;;;;;;;;;;;;;;;2193778;67;1638;-20
2024/03/10 13:08:17;;;;;;;;;;;;;;;;;;2189337;67;2488;-20
2024/03/10 13:10:47;;;;;;;;;;;;;;;;;;2193227;67;1880;-20
2024/03/10 13:13:17;;;;;;;;;;;;;;;;;;2191834;59;2238;-20
2024/03/10 13:15:50;;;;;;;;;;;;;;;;;;2190891;59;1458;-20
2024/03/10 13:18:21;;;;;;;;;;;;;;;;;;2191953;59;2111;-20
2024/03/10 13:20:53;;;;;;;;;;;;;;;;;;2194205;67;1788;-20
2024/03/10 13:23:24;;;;;;;;;;;;;;;;;;2190260;59;2234;-20
2024/03/10 13:25:54;;;;;;;;;;;;;;;;;;2192348;59;2687;-20
2024/03/10 13:28:24;;;;;;;;;;;;;;;;;;2192078;59;2618;-20
2024/03/10 13:30:56;;;;;;;;;;;;;;;;;;2189175;67;1830;-20
2024/03/10 13:33:28;;;;;;;;;;;;;;;;;;2193572;59;2184;-20
2024/03/10 13:35:58;;;;;;;;;;;;;;;;;;2191884;67;1715;-20
2024/03/10 13:41:05;;;;;;;;;;;;;;;;;;2191178;59;2110;-22
2024/03/10 13:43:36;;;;;;;;;;;;;;;;;;2196530;59;1911;-22
2024/03/10 13:46:07;;;;;;;;;;;;;;;;;;2189819;59;2186;-22
2024/03/10 13:48:37;;;;;;;;;;;;;;;;;;2196539;59;1949;-22
2024/03/10 13:51:08;;;;;;;;;;;;;;;;;;2187259;59;2256;-22
2024/03/10 13:53:38;;;;;;;;;;;;;;;;;;2191734;59;2035;-22
2024/03/10 13:56:10;;;;;;;;;;;;;;;;;;2187073;59;2840;-22
2024/03/10 13:58:43;;;;;;;;;;;;;;;;;;2194721;67;2200;-22
2024/03/10 14:01:15;;;;;;;;;;;;;;;;;;2192835;59;2041;-22
2024/03/10 14:03:45;;;;;;;;;;;;;;;;;;2189556;67;2828;-22
2024/03/10 14:06:15;;;;;;;;;;;;;;;;;;2189213;67;2862;-22
2024/03/10 14:08:45;;;;;;;;;;;;;;;;;;2187764;59;2434;-22
2024/03/10 14:11:16;;;;;;;;;;;;;;;;;;2190795;67;2698;-22
2024/03/10 14:13:48;;;;;;;;;;;;;;;;;;2190521;59;2995;-22
2024/03/10 14:16:18;;;;;;;;;;;;;;;;;;2184947;59;2717;-23
2024/03/10 14:18:49;;;;;;;;;;;;;;;;;;2187161;59;2114;-23
2024/03/10 14:21:19;;;;;;;;;;;;;;;;;;2189294;59;2128;-23
2024/03/10 14:23:49;;;;;;;;;;;;;;;;;;2188346;59;2147;-23
2024/03/10 14:26:20;;;;;;;;;;;;;;;;;;2190316;59;2224;-23
2024/03/10 14:28:50;;;;;;;;;;;;;;;;;;2187415;59;2120;-23
2024/03/10 14:31:20;;;;;;;;;;;;;;;;;;2186199;67;1891;-23
2024/03/10 14:33:54;;;;;;;;;;;;;;;;;;2184098;67;2335;-23
2024/03/10 14:36:28;;;;;;;;;;;;;;;;;;2189626;67;2334;-22
2024/03/10 14:39:00;;;;;;;;;;;;;;;;;;2189800;59;2201;-22
2024/03/10 14:41:32;;;;;;;;;;;;;;;;;;2187497;59;2514;-22
2024/03/10 14:44:02;;;;;;;;;;;;;;;;;;2192736;67;2412;-22
2024/03/10 14:46:33;;;;;;;;;;;;;;;;;;2194172;59;2512;-22
2024/03/10 14:49:04;;;;;;;;;;;;;;;;;;2187107;59;2225;-22
2024/03/10 14:51:35;;;;;;;;;;;;;;;;;;2190376;59;2325;-22
2024/03/10 14:54:07;;;;;;;;;;;;;;;;;;2189337;59;2286;-22
2024/03/10 14:56:38;;;;;;;;;;;;;;;;;;2190798;59;2508;-22
2024/03/10 14:59:08;;;;;;;;;;;;;;;;;;2188903;67;2665;-22
2024/03/10 15:01:40;;;;;;;;;;;;;;;;;;2191031;67;1962;-22
2024/03/10 15:04:10;;;;;;;;;;;;;;;;;;2189048;59;2906;-22
2024/03/10 15:06:41;;;;;;;;;;;;;;;;;;2191353;67;2512;-22
2024/03/10 15:09:14;;;;;;;;;;;;;;;;;;2185798;67;2473;-22
2024/03/10 15:11:45;;;;;;;;;;;;;;;;;;2191431;67;1760;-22
2024/03/10 15:14:15;;;;;;;;;;;;;;;;;;2190515;59;2434;-22
2024/03/10 15:16:45;;;;;;;;;;;;;;;;;;2192246;67;1867;-22
2024/03/10 15:19:16;;;;;;;;;;;;;;;;;;2190693;59;2168;-22
2024/03/10 15:21:46;;;;;;;;;;;;;;;;;;2189086;67;1951;-22
2024/03/10 15:24:17;;;;;;;;;;;;;;;;;;2187555;59;2294;-22
2024/03/10 15:26:48;;;;;;;;;;;;;;;;;;2192055;59;2340;-22
2024/03/10 15:29:21;;;;;;;;;;;;;;;;;;2191135;67;1997;-22
2024/03/10 15:31:51;;;;;;;;;;;;;;;;;;2187860;67;1236;-23
2024/03/10 15:34:23;;;;;;;;;;;;;;;;;;2190855;59;1866;-23
2024/03/10 15:36:53;;;;;;;;;;;;;;;;;;2192004;67;1893;-23
2024/03/10 15:39:27;;;;;;;;;;;;;;;;;;2187748;59;1904;-23
2024/03/10 15:41:59;;;;;;;;;;;;;;;;;;2185347;67;1750;-23
2024/03/10 15:44:30;;;;;;;;;;;;;;;;;;2191732;67;1834;-23
2024/03/10 15:47:01;;;;;;;;;;;;;;;;;;2188151;59;2740;-23
2024/03/10 15:49:32;;;;;;;;;;;;;;;;;;2188851;59;1942;-22
2024/03/10 15:52:02;;;;;;;;;;;;;;;;;;2190529;59;2114;-22
2024/03/10 15:54:32;;;;;;;;;;;;;;;;;;2188433;60;2142;-22
2024/03/10 15:57:04;;;;;;;;;;;;;;;;;;2189959;59;2241;-22
2024/03/10 15:59:36;;;;;;;;;;;;;;;;;;2191283;59;2097;-22
2024/03/10 16:02:07;;;;;;;;;;;;;;;;;;2190844;59;1793;-22
2024/03/10 16:04:39;;;;;;;;;;;;;;;;;;2192189;59;2606;-22
2024/03/10 16:07:09;;;;;;;;;;;;;;;;;;2188515;59;1860;-22
2024/03/10 16:09:40;;;;;;;;;;;;;;;;;;2187368;59;2021;-22
2024/03/10 16:12:11;;;;;;;;;;;;;;;;;;2190903;59;1766;-23
2024/03/10 16:14:41;;;;;;;;;;;;;;;;;;2191632;59;2120;-23
2024/03/10 16:17:12;;;;;;;;;;;;;;;;;;2187939;59;1839;-24
2024/03/10 16:19:42;;;;;;;;;;;;;;;;;;2192384;67;1897;-24
2024/03/10 16:22:12;;;;;;;;;;;;;;;;;;2190295;67;1846;-23
2024/03/10 16:24:45;;;;;;;;;;;;;;;;;;2192530;59;2035;-23
2024/03/10 16:27:15;;;;;;;;;;;;;;;;;;2190983;59;1968;-23
2024/03/10 16:29:45;;;;;;;;;;;;;;;;;;2192475;59;2015;-23
2024/03/10 16:32:16;;;;;;;;;;;;;;;;;;2191501;59;2181;-22
2024/03/10 16:34:46;;;;;;;;;;;;;;;;;;2191849;59;2031;-23
2024/03/10 16:37:24;;;;;;;;;;;;;;;;;;2191263;59;2765;-23
2024/03/10 16:39:54;;;;;;;;;;;;;;;;;;2192690;59;2504;-24
2024/03/10 16:42:25;;;;;;;;;;;;;;;;;;2189476;59;1924;-23
2024/03/10 16:44:56;;;;;;;;;;;;;;;;;;2186896;59;2385;-23
2024/03/10 16:47:26;;;;;;;;;;;;;;;;;;2187284;59;1957;-23
2024/03/10 16:49:57;;;;;;;;;;;;;;;;;;2192879;67;1963;-23
2024/03/10 16:52:27;;;;;;;;;;;;;;;;;;2191820;67;1647;-25
2024/03/10 16:54:59;;;;;;;;;;;;;;;;;;2193054;67;2064;-25
2024/03/10 16:57:29;;;;;;;;;;;;;;;;;;2192064;67;2156;-25
2024/03/10 17:00:00;;;;;;;;;;;;;;;;;;2189236;67;2141;-25
2024/03/10 17:02:31;;;;;;;;;;;;;;;;;;2191522;59;2249;-25
2024/03/10 17:05:01;;;;;;;;;;;;;;;;;;2193389;67;2300;-25
2024/03/10 17:07:31;;;;;;;;;;;;;;;;;;2191595;67;2248;-25
2024/03/10 17:10:02;;;;;;;;;;;;;;;;;;2189668;67;1969;-25
2024/03/10 17:12:33;;;;;;;;;;;;;;;;;;2191798;59;2395;-26
2024/03/10 17:15:08;;;;;;;;;;;;;;;;;;2195255;59;1735;-26
2024/03/10 17:17:42;;;;;;;;;;;;;;;;;;2196123;67;2925;-26
2024/03/10 17:20:13;;;;;;;;;;;;;;;;;;2191676;67;1754;-25
2024/03/10 17:22:43;;;;;;;;;;;;;;;;;;2193677;67;1865;-26
2024/03/10 17:25:14;;;;;;;;;;;;;;;;;;2191804;67;1762;-25
2024/03/10 17:27:44;;;;;;;;;;;;;;;;;;2192195;67;2336;-26
2024/03/10 17:30:15;;;;;;;;;;;;;;;;;;2189115;59;1843;-25
2024/03/10 17:32:46;;;;;;;;;;;;;;;;;;2189410;67;2723;-25
2024/03/10 17:35:18;;;;;;;;;;;;;;;;;;2188539;59;2233;-25
2024/03/10 17:37:49;;;;;;;;;;;;;;;;;;2189395;59;2506;-25
2024/03/10 17:40:27;;;;;;;;;;;;;;;;;;2191877;59;2039;-25
2024/03/10 17:42:57;;;;;;;;;;;;;;;;;;2192525;67;1773;-25
2024/03/10 17:45:27;;;;;;;;;;;;;;;;;;2188404;59;2068;-25
2024/03/10 17:47:59;;;;;;;;;;;;;;;;;;2192168;67;1940;-25
2024/03/10 17:50:32;;;;;;;;;;;;;;;;;;2187922;67;2461;-25
2024/03/10 17:53:04;;;;;;;;;;;;;;;;;;2192617;67;1840;-25
2024/03/10 17:55:34;;;;;;;;;;;;;;;;;;2187746;67;1950;-25